Time;durP1;ratioP1;P1;durP2;ratioP2;P2;SDS_P1;SDS_P2;PMS_P1;PMS_P2;Temp;Humidity;BMP_temperature;BMP_pressure;BME280_temperature;BME280_humidity;BME280_pressure;Samples;Min_cycle;Max_cycle;Signal;HPM_P1;HPM_P2
2023/02/20 00:00:52;;;;;;;;;;;17.70;52.50;;;;;;10286392;28;778;-74
2023/02/20 00:05:48;;;;;;;;;;;17.70;52.60;;;;;;10287252;28;825;-75
2023/02/20 00:10:43;;;;;;;;;;;17.70;52.90;;;;;;10302441;28;1290;-75
2023/02/20 00:15:39;;;;;;;;;;;17.70;52.30;;;;;;10285292;28;1910;-74
2023/02/20 00:20:35;;;;;;;;;;;17.70;52.30;;;;;;10285158;28;925;-74
2023/02/20 00:25:31;;;;;;;;;;;17.70;52.40;;;;;;10286066;28;886;-74
2023/02/20 00:30:26;;;;;;;;;;;17.70;52.40;;;;;;10285357;28;833;-74
2023/02/20 00:35:22;;;;;;;;;;;17.70;52.20;;;;;;10285754;28;1977;-74
2023/02/20 00:40:17;;;;;;;;;;;17.70;52.20;;;;;;10285175;28;854;-75
2023/02/20 00:45:13;;;;;;;;;;;17.70;52.20;;;;;;10286183;28;1319;-74
2023/02/20 00:50:08;;;;;;;;;;;17.70;52.00;;;;;;10284913;28;770;-75
2023/02/20 00:55:03;;;;;;;;;;;17.60;52.10;;;;;;10284977;28;1913;-75
2023/02/20 00:59:59;;;;;;;;;;;17.70;52.20;;;;;;10285435;28;955;-74
2023/02/20 01:04:55;;;;;;;;;;;17.70;52.20;;;;;;10284570;28;829;-74
2023/02/20 01:09:50;;;;;;;;;;;17.60;52.10;;;;;;10285011;28;888;-74
2023/02/20 01:14:46;;;;;;;;;;;17.60;52.10;;;;;;10283728;28;1965;-74
2023/02/20 01:19:41;;;;;;;;;;;17.60;52.00;;;;;;10284923;28;1040;-74
2023/02/20 01:24:37;;;;;;;;;;;17.60;51.90;;;;;;10284219;28;794;-75
2023/02/20 01:29:32;;;;;;;;;;;17.70;51.80;;;;;;10285341;28;873;-74
2023/02/20 01:34:27;;;;;;;;;;;17.60;51.40;;;;;;10284548;28;1906;-74
2023/02/20 01:39:23;;;;;;;;;;;17.60;51.50;;;;;;10287952;28;960;-75
2023/02/20 01:44:18;;;;;;;;;;;17.60;51.40;;;;;;10291645;28;1345;-74
2023/02/20 01:49:14;;;;;;;;;;;17.60;51.30;;;;;;10291595;28;759;-74
2023/02/20 01:54:09;;;;;;;;;;;17.60;51.60;;;;;;10291246;28;1906;-74
2023/02/20 01:59:04;;;;;;;;;;;17.60;51.40;;;;;;10291787;28;782;-74
2023/02/20 02:04:00;;;;;;;;;;;17.60;51.30;;;;;;10290979;28;921;-74
2023/02/20 02:08:55;;;;;;;;;;;17.60;51.30;;;;;;10291065;28;754;-74
2023/02/20 02:13:51;;;;;;;;;;;17.60;51.20;;;;;;10290704;28;1910;-74
2023/02/20 02:18:46;;;;;;;;;;;17.60;51.30;;;;;;10290573;28;786;-74
2023/02/20 02:23:41;;;;;;;;;;;17.60;51.20;;;;;;10290882;28;837;-74
2023/02/20 02:28:37;;;;;;;;;;;17.60;51.10;;;;;;10290639;28;987;-74
2023/02/20 02:33:32;;;;;;;;;;;17.60;51.10;;;;;;10289863;28;1907;-74
2023/02/20 02:38:27;;;;;;;;;;;17.60;51.10;;;;;;10289669;28;929;-74
2023/02/20 02:43:23;;;;;;;;;;;17.60;50.90;;;;;;10289942;28;1341;-73
2023/02/20 02:48:18;;;;;;;;;;;17.60;50.90;;;;;;10289960;28;859;-74
2023/02/20 02:53:13;;;;;;;;;;;17.50;50.80;;;;;;10288317;28;1969;-74
2023/02/20 02:58:09;;;;;;;;;;;17.50;50.50;;;;;;10289590;28;872;-74
2023/02/20 03:03:04;;;;;;;;;;;17.50;50.80;;;;;;10289982;28;959;-74
2023/02/20 03:08:00;;;;;;;;;;;17.50;51.10;;;;;;10288337;28;796;-73
2023/02/20 03:12:55;;;;;;;;;;;17.50;51.10;;;;;;10289188;28;1955;-74
2023/02/20 03:17:50;;;;;;;;;;;17.50;50.80;;;;;;10288795;28;793;-74
2023/02/20 03:22:46;;;;;;;;;;;17.50;50.90;;;;;;10288654;28;931;-74
2023/02/20 03:27:41;;;;;;;;;;;17.50;51.00;;;;;;10287243;28;900;-74
2023/02/20 03:48:19;;;;;;;;;;;17.40;50.90;;;;;;10287043;28;664;-74
2023/02/20 03:53:14;;;;;;;;;;;17.50;51.00;;;;;;10286889;28;1993;-73
2023/02/20 03:58:10;;;;;;;;;;;17.50;50.80;;;;;;10286592;28;862;-73
2023/02/20 04:03:05;;;;;;;;;;;17.50;50.70;;;;;;10284777;28;984;-74
2023/02/20 04:08:00;;;;;;;;;;;17.50;50.60;;;;;;10285680;28;1059;-74
2023/02/20 04:12:56;;;;;;;;;;;17.50;50.80;;;;;;10285429;28;1902;-75
2023/02/20 04:17:51;;;;;;;;;;;17.50;50.70;;;;;;10286529;28;845;-74
2023/02/20 04:22:47;;;;;;;;;;;17.50;50.40;;;;;;10286315;28;826;-74
2023/02/20 04:27:42;;;;;;;;;;;17.50;50.70;;;;;;10285001;28;831;-74
2023/02/20 04:32:37;;;;;;;;;;;17.50;50.50;;;;;;10285348;28;1914;-74
2023/02/20 04:37:33;;;;;;;;;;;17.50;50.30;;;;;;10285300;28;967;-74
2023/02/20 04:42:28;;;;;;;;;;;17.50;50.30;;;;;;10285496;28;1671;-74
2023/02/20 04:47:23;;;;;;;;;;;17.50;50.30;;;;;;10285032;28;987;-74
2023/02/20 04:52:19;;;;;;;;;;;17.40;50.40;;;;;;10284839;28;1917;-74
2023/02/20 04:57:14;;;;;;;;;;;17.40;50.50;;;;;;10284776;28;797;-74
2023/02/20 05:02:09;;;;;;;;;;;17.50;50.10;;;;;;10284451;28;880;-73
2023/02/20 05:07:05;;;;;;;;;;;17.40;50.20;;;;;;10284575;28;861;-74
2023/02/20 05:12:00;;;;;;;;;;;17.40;50.20;;;;;;10284542;28;1953;-74
2023/02/20 05:16:56;;;;;;;;;;;17.40;50.40;;;;;;10291999;28;1007;-74
2023/02/20 05:27:05;;;;;;;;;;;17.50;50.10;;;;;;10291894;28;608;-74
2023/02/20 05:32:00;;;;;;;;;;;17.50;50.20;;;;;;10292801;28;1959;-74
2023/02/20 05:36:56;;;;;;;;;;;17.40;50.20;;;;;;10292703;28;766;-74
2023/02/20 05:41:51;;;;;;;;;;;17.50;50.20;;;;;;10292518;28;1436;-73
2023/02/20 05:46:47;;;;;;;;;;;17.50;50.20;;;;;;10292283;28;852;-73
2023/02/20 05:51:42;;;;;;;;;;;17.50;50.10;;;;;;10291450;28;1922;-74
2023/02/20 05:56:37;;;;;;;;;;;17.50;49.90;;;;;;10292153;28;825;-81
2023/02/20 06:01:33;;;;;;;;;;;17.50;50.00;;;;;;10292326;28;849;-82
2023/02/20 06:06:31;;;;;;;;;;;17.50;49.60;;;;;;10291594;28;813;-80
2023/02/20 06:11:26;;;;;;;;;;;17.50;49.90;;;;;;10290901;28;1970;-81
2023/02/20 06:16:22;;;;;;;;;;;17.50;49.90;;;;;;10290658;28;827;-80
2023/02/20 06:21:17;;;;;;;;;;;17.50;49.50;;;;;;10291044;28;805;-80
2023/02/20 06:26:12;;;;;;;;;;;17.50;49.80;;;;;;10289665;28;841;-80
2023/02/20 06:31:08;;;;;;;;;;;17.50;49.70;;;;;;10289513;28;857;-79
2023/02/20 06:36:03;;;;;;;;;;;17.50;49.60;;;;;;10289822;28;1973;-80
2023/02/20 06:40:58;;;;;;;;;;;17.50;49.40;;;;;;10290090;28;1288;-80
2023/02/20 06:45:54;;;;;;;;;;;17.50;49.50;;;;;;10289597;28;710;-81
2023/02/20 06:50:54;;;;;;;;;;;17.40;49.40;;;;;;10289874;28;802;-81
2023/02/20 06:55:49;;;;;;;;;;;17.40;49.60;;;;;;10288994;28;1980;-81
2023/02/20 07:00:44;;;;;;;;;;;17.50;49.10;;;;;;10289001;28;956;-79
2023/02/20 07:05:40;;;;;;;;;;;17.40;49.60;;;;;;10288118;28;994;-80
2023/02/20 07:10:35;;;;;;;;;;;17.40;49.30;;;;;;10288556;28;904;-80
2023/02/20 07:15:30;;;;;;;;;;;17.40;49.60;;;;;;10288480;28;1906;-79
2023/02/20 07:20:26;;;;;;;;;;;17.40;49.60;;;;;;10288733;28;805;-77
2023/02/20 07:25:21;;;;;;;;;;;17.40;49.70;;;;;;10288202;28;905;-81
2023/02/20 07:30:16;;;;;;;;;;;17.30;49.60;;;;;;10288335;28;792;-82
2023/02/20 07:35:12;;;;;;;;;;;17.30;49.70;;;;;;10287216;28;1898;-80
2023/02/20 07:40:07;;;;;;;;;;;17.30;49.60;;;;;;10288099;28;920;-81
2023/02/20 07:45:03;;;;;;;;;;;17.40;49.40;;;;;;10288266;28;1340;-84
2023/02/20 07:49:58;;;;;;;;;;;17.40;49.20;;;;;;10286968;28;979;-80
2023/02/20 07:54:54;;;;;;;;;;;17.40;49.40;;;;;;10286737;28;1971;-80
2023/02/20 07:59:49;;;;;;;;;;;17.40;49.60;;;;;;10286035;28;829;-79
2023/02/20 08:04:44;;;;;;;;;;;17.40;49.60;;;;;;10287761;28;877;-80
2023/02/20 08:09:40;;;;;;;;;;;17.40;49.70;;;;;;10222156;28;1012;-81
2023/02/20 08:14:35;;;;;;;;;;;17.40;49.60;;;;;;10080545;28;1907;-82
2023/02/20 08:19:30;;;;;;;;;;;17.40;49.60;;;;;;10080389;28;846;-82
2023/02/20 08:24:26;;;;;;;;;;;17.40;49.60;;;;;;10081687;28;889;-82
2023/02/20 08:29:21;;;;;;;;;;;17.40;49.50;;;;;;10080230;28;992;-80
2023/02/20 08:34:16;;;;;;;;;;;17.40;49.40;;;;;;10080236;28;1911;-81
2023/02/20 08:39:12;;;;;;;;;;;17.40;49.40;;;;;;10079654;28;995;-81
2023/02/20 08:44:07;;;;;;;;;;;17.40;49.20;;;;;;10080789;28;1239;-77
2023/02/20 08:49:02;;;;;;;;;;;17.40;49.40;;;;;;10079088;28;957;-76
2023/02/20 08:53:58;;;;;;;;;;;17.70;49.40;;;;;;10080035;28;1971;-75
2023/02/20 08:58:53;;;;;;;;;;;17.80;49.40;;;;;;10080378;28;917;-76
2023/02/20 09:03:50;;;;;;;;;;;17.90;49.50;;;;;;10079157;28;813;-75
2023/02/20 09:08:45;;;;;;;;;;;17.90;49.30;;;;;;10079467;28;895;-74
2023/02/20 09:13:40;;;;;;;;;;;17.80;49.70;;;;;;10079379;28;1903;-74
2023/02/20 09:18:36;;;;;;;;;;;17.80;49.50;;;;;;10079338;28;884;-76
2023/02/20 09:23:31;;;;;;;;;;;17.80;49.60;;;;;;10078709;28;761;-75
2023/02/20 09:28:27;;;;;;;;;;;17.90;49.60;;;;;;10078995;28;917;-77
2023/02/20 09:33:22;;;;;;;;;;;17.90;49.70;;;;;;10078775;28;1969;-76
2023/02/20 09:38:17;;;;;;;;;;;17.80;49.30;;;;;;10079447;28;1115;-72
2023/02/20 09:43:14;;;;;;;;;;;17.90;49.90;;;;;;10116860;28;1431;-76
2023/02/20 09:48:09;;;;;;;;;;;17.80;49.40;;;;;;10118581;28;869;-76
2023/02/20 09:53:04;;;;;;;;;;;17.80;50.00;;;;;;10117088;28;1907;-76
2023/02/20 09:58:00;;;;;;;;;;;17.80;50.00;;;;;;10117515;28;895;-73
2023/02/20 10:02:55;;;;;;;;;;;17.90;50.10;;;;;;10123750;28;899;-73
2023/02/20 10:07:50;;;;;;;;;;;17.70;50.10;;;;;;10123809;28;1018;-73
2023/02/20 10:12:46;;;;;;;;;;;17.80;50.00;;;;;;10123758;28;1911;-75
2023/02/20 10:17:41;;;;;;;;;;;17.70;49.80;;;;;;10124376;28;814;-79
2023/02/20 10:22:37;;;;;;;;;;;17.70;49.60;;;;;;10123441;28;837;-79
2023/02/20 10:27:32;;;;;;;;;;;17.50;50.00;;;;;;10123497;28;826;-79
2023/02/20 10:32:28;;;;;;;;;;;17.40;49.90;;;;;;10123399;28;1969;-79
2023/02/20 10:37:23;;;;;;;;;;;17.40;50.10;;;;;;10123186;28;766;-79
2023/02/20 10:42:18;;;;;;;;;;;17.40;50.00;;;;;;10122056;28;1265;-79
2023/02/20 10:47:14;;;;;;;;;;;17.30;49.70;;;;;;10122883;28;757;-79
2023/02/20 10:52:09;;;;;;;;;;;17.30;49.80;;;;;;10122163;28;1977;-79
2023/02/20 10:57:04;;;;;;;;;;;17.30;49.80;;;;;;10123180;28;984;-79
2023/02/20 11:02:00;;;;;;;;;;;17.30;49.80;;;;;;10121993;28;763;-79
2023/02/20 11:06:55;;;;;;;;;;;17.30;50.00;;;;;;10122886;28;821;-80
2023/02/20 11:11:50;;;;;;;;;;;17.40;49.90;;;;;;10121338;28;1964;-79
2023/02/20 11:16:46;;;;;;;;;;;17.40;49.50;;;;;;10121517;28;1027;-79
2023/02/20 11:21:41;;;;;;;;;;;17.40;49.80;;;;;;10121420;28;882;-81
2023/02/20 11:26:37;;;;;;;;;;;17.40;49.60;;;;;;10121240;28;854;-80
2023/02/20 11:31:32;;;;;;;;;;;17.30;49.40;;;;;;10121207;28;869;-82
2023/02/20 11:36:27;;;;;;;;;;;17.30;49.70;;;;;;10121057;28;1970;-82
2023/02/20 11:41:23;;;;;;;;;;;17.30;49.50;;;;;;10120545;28;1208;-86
2023/02/20 11:46:20;;;;;;;;;;;17.30;49.40;;;;;;10120853;28;881;-86
2023/02/20 11:51:15;;;;;;;;;;;17.40;49.40;;;;;;10120675;28;972;-80
2023/02/20 11:56:11;;;;;;;;;;;17.40;49.40;;;;;;10119834;28;1919;-85
2023/02/20 12:01:06;;;;;;;;;;;17.50;49.80;;;;;;10120243;28;795;-84
2023/02/20 12:06:02;;;;;;;;;;;17.40;49.70;;;;;;10120100;28;833;-79
2023/02/20 12:10:58;;;;;;;;;;;17.40;49.90;;;;;;10119853;28;892;-83
2023/02/20 12:15:54;;;;;;;;;;;17.40;49.90;;;;;;10119841;28;1902;-82
2023/02/20 12:20:49;;;;;;;;;;;17.40;50.00;;;;;;10117758;28;1125;-84
2023/02/20 12:25:45;;;;;;;;;;;17.40;49.90;;;;;;10118408;28;767;-81
2023/02/20 12:30:40;;;;;;;;;;;17.30;49.70;;;;;;10119009;28;968;-81
2023/02/20 12:35:39;;;;;;;;;;;17.30;50.00;;;;;;10119249;28;1965;-81
2023/02/20 12:40:34;;;;;;;;;;;17.30;50.10;;;;;;10118735;28;1040;-81
2023/02/20 12:45:30;;;;;;;;;;;17.30;50.00;;;;;;10119081;28;779;-81
2023/02/20 12:50:25;;;;;;;;;;;17.30;49.70;;;;;;10118468;28;763;-83
2023/02/20 12:55:20;;;;;;;;;;;17.30;49.50;;;;;;10118944;28;1984;-82
2023/02/20 13:00:16;;;;;;;;;;;17.30;49.70;;;;;;10119402;28;828;-86
2023/02/20 13:05:11;;;;;;;;;;;17.30;49.60;;;;;;10118616;28;770;-80
2023/02/20 13:10:06;;;;;;;;;;;17.40;50.20;;;;;;10118427;28;763;-79
2023/02/20 13:15:02;;;;;;;;;;;17.50;50.30;;;;;;10118263;28;1895;-75
2023/02/20 13:19:57;;;;;;;;;;;17.60;50.50;;;;;;10118777;28;907;-78
2023/02/20 13:24:52;;;;;;;;;;;17.70;50.40;;;;;;10118089;28;884;-79
2023/02/20 13:29:48;;;;;;;;;;;17.60;50.50;;;;;;10117931;28;905;-77
2023/02/20 13:34:43;;;;;;;;;;;17.60;50.70;;;;;;10119916;28;1906;-79
2023/02/20 13:39:39;;;;;;;;;;;17.70;50.80;;;;;;10126033;28;892;-80
2023/02/20 13:44:34;;;;;;;;;;;17.70;50.80;;;;;;10125454;28;1333;-77
2023/02/20 13:49:29;;;;;;;;;;;17.70;51.10;;;;;;10124475;28;796;-80
2023/02/20 13:54:25;;;;;;;;;;;17.70;51.00;;;;;;10124595;28;1910;-79
2023/02/20 13:59:20;;;;;;;;;;;17.70;51.00;;;;;;10124119;28;850;-74
2023/02/20 14:04:16;;;;;;;;;;;17.70;51.10;;;;;;10124007;28;879;-76
2023/02/20 14:09:11;;;;;;;;;;;17.70;51.00;;;;;;10123768;28;917;-76
2023/02/20 14:14:06;;;;;;;;;;;17.70;50.80;;;;;;10123730;28;1969;-74
2023/02/20 14:19:02;;;;;;;;;;;17.80;50.80;;;;;;10123514;28;845;-75
2023/02/20 14:23:57;;;;;;;;;;;17.80;51.00;;;;;;10124085;28;822;-74
2023/02/20 14:28:52;;;;;;;;;;;17.80;50.80;;;;;;10123115;28;877;-75
2023/02/20 14:33:48;;;;;;;;;;;17.80;50.80;;;;;;10122966;28;1968;-75
2023/02/20 14:38:43;;;;;;;;;;;17.80;50.90;;;;;;10122960;28;754;-73
2023/02/20 14:43:39;;;;;;;;;;;17.90;50.90;;;;;;10122153;28;1279;-73
2023/02/20 14:48:36;;;;;;;;;;;17.90;50.70;;;;;;10122191;28;875;-74
2023/02/20 14:53:32;;;;;;;;;;;17.90;50.70;;;;;;10122832;28;1911;-74
2023/02/20 14:58:28;;;;;;;;;;;17.90;50.70;;;;;;10122869;28;884;-73
2023/02/20 15:03:23;;;;;;;;;;;17.90;50.70;;;;;;10121700;28;813;-74
2023/02/20 15:08:19;;;;;;;;;;;17.90;50.70;;;;;;10121934;28;762;-74
2023/02/20 15:13:15;;;;;;;;;;;17.90;50.60;;;;;;10121131;28;1910;-75
2023/02/20 15:18:12;;;;;;;;;;;17.90;50.60;;;;;;10121713;28;790;-74
2023/02/20 15:23:08;;;;;;;;;;;17.80;50.50;;;;;;10121543;28;818;-73
2023/02/20 15:28:03;;;;;;;;;;;17.80;50.50;;;;;;10121367;28;880;-73
2023/02/20 15:32:59;;;;;;;;;;;17.80;50.50;;;;;;10121192;28;1974;-73
2023/02/20 15:37:55;;;;;;;;;;;17.90;50.50;;;;;;10121729;28;929;-77
2023/02/20 15:42:55;;;;;;;;;;;17.90;50.50;;;;;;10121065;28;1447;-77
2023/02/20 15:47:50;;;;;;;;;;;17.90;50.50;;;;;;10121575;28;798;-78
2023/02/20 15:52:45;;;;;;;;;;;17.90;50.60;;;;;;10121181;28;1915;-70
2023/02/20 15:57:41;;;;;;;;;;;17.90;50.60;;;;;;10117600;28;1185;-71
2023/02/20 16:02:36;;;;;;;;;;;17.90;50.50;;;;;;10119148;28;940;-81
2023/02/20 16:07:31;;;;;;;;;;;17.90;50.30;;;;;;10120218;28;767;-78
2023/02/20 16:12:27;;;;;;;;;;;17.80;50.30;;;;;;10120208;28;1902;-76
2023/02/20 16:17:22;;;;;;;;;;;18.00;50.50;;;;;;10120752;28;913;-74
2023/02/20 16:22:17;;;;;;;;;;;18.00;50.60;;;;;;10120384;28;861;-74
2023/02/20 16:27:13;;;;;;;;;;;18.00;50.70;;;;;;10120238;28;779;-74
2023/02/20 16:32:08;;;;;;;;;;;18.00;50.60;;;;;;10120575;28;1891;-73
2023/02/20 16:37:04;;;;;;;;;;;18.00;50.50;;;;;;10118755;28;850;-74
2023/02/20 16:42:00;;;;;;;;;;;17.90;50.60;;;;;;10118983;28;1116;-75
2023/02/20 16:46:55;;;;;;;;;;;18.00;51.30;;;;;;10118478;28;1020;-75
2023/02/20 16:52:00;;;;;;;;;;;18.00;50.50;;;;;;10120064;28;1981;-74
2023/02/20 16:56:55;;;;;;;;;;;18.00;50.50;;;;;;10119573;28;876;-75
2023/02/20 17:01:50;;;;;;;;;;;17.90;50.60;;;;;;10118610;28;768;-79
2023/02/20 17:06:46;;;;;;;;;;;18.00;50.70;;;;;;10118796;28;952;-83
2023/02/20 17:11:41;;;;;;;;;;;18.00;50.70;;;;;;10118021;28;778;-79
2023/02/20 17:16:36;;;;;;;;;;;17.80;51.00;;;;;;10119120;28;1911;-80
2023/02/20 17:21:32;;;;;;;;;;;17.70;51.10;;;;;;10119675;28;872;-80
2023/02/20 17:26:27;;;;;;;;;;;17.60;51.10;;;;;;10119177;28;952;-80
2023/02/20 17:31:24;;;;;;;;;;;17.60;51.30;;;;;;10118113;28;837;-80
2023/02/20 17:36:19;;;;;;;;;;;17.60;51.30;;;;;;10118607;28;1911;-81
2023/02/20 17:41:14;;;;;;;;;;;17.50;51.20;;;;;;10118022;28;1442;-81
2023/02/20 17:46:10;;;;;;;;;;;17.80;51.00;;;;;;10117356;28;858;-82
2023/02/20 17:51:05;;;;;;;;;;;17.90;50.80;;;;;;10117828;28;754;-81
2023/02/20 17:56:00;;;;;;;;;;;18.00;50.70;;;;;;10117653;28;1914;-82
2023/02/20 18:00:56;;;;;;;;;;;17.90;50.90;;;;;;10117605;28;948;-80
2023/02/20 18:05:51;;;;;;;;;;;17.90;50.90;;;;;;10117418;28;893;-76
2023/02/20 18:10:47;;;;;;;;;;;17.80;51.00;;;;;;10118217;28;916;-78
2023/02/20 18:15:42;;;;;;;;;;;17.70;51.00;;;;;;10117155;28;1906;-77
2023/02/20 18:20:37;;;;;;;;;;;17.60;51.20;;;;;;10117527;28;901;-77
2023/02/20 18:25:33;;;;;;;;;;;17.50;51.20;;;;;;10123722;28;933;-78
2023/02/20 18:30:28;;;;;;;;;;;17.50;51.40;;;;;;10124120;28;838;-77
2023/02/20 18:35:23;;;;;;;;;;;17.50;51.50;;;;;;10122708;28;1898;-77
2023/02/20 18:40:19;;;;;;;;;;;17.40;51.20;;;;;;10123252;28;868;-77
2023/02/20 18:45:14;;;;;;;;;;;17.40;51.40;;;;;;10124538;28;1172;-77
2023/02/20 18:50:10;;;;;;;;;;;17.40;51.50;;;;;;10123618;28;762;-77
2023/02/20 18:55:05;;;;;;;;;;;17.40;51.50;;;;;;10122136;28;1914;-77
2023/02/20 19:00:00;;;;;;;;;;;17.40;51.40;;;;;;10123894;28;842;-77
2023/02/20 19:04:57;;;;;;;;;;;17.40;51.40;;;;;;10122494;28;972;-77
2023/02/20 19:09:55;;;;;;;;;;;17.40;51.20;;;;;;10122264;28;956;-77
2023/02/20 19:14:50;;;;;;;;;;;17.40;51.30;;;;;;10122066;28;1981;-77
2023/02/20 19:19:45;;;;;;;;;;;17.40;51.20;;;;;;10122673;28;949;-77
2023/02/20 19:24:41;;;;;;;;;;;17.40;51.20;;;;;;10122701;28;927;-79
2023/02/20 19:29:36;;;;;;;;;;;17.40;51.10;;;;;;10121964;28;821;-83
2023/02/20 19:34:31;;;;;;;;;;;17.60;51.00;;;;;;10120424;28;2241;-81
2023/02/20 19:39:27;;;;;;;;;;;17.50;51.10;;;;;;10120810;28;1102;-81
2023/02/20 19:44:22;;;;;;;;;;;17.40;51.10;;;;;;10122002;28;1117;-81
2023/02/20 19:49:18;;;;;;;;;;;17.40;51.00;;;;;;10121286;28;935;-75
2023/02/20 19:54:13;;;;;;;;;;;17.40;51.10;;;;;;10120893;28;1923;-75
2023/02/20 19:59:09;;;;;;;;;;;17.40;51.10;;;;;;10121386;28;829;-75
2023/02/20 20:04:04;;;;;;;;;;;17.40;51.10;;;;;;10120837;28;944;-76
2023/02/20 20:08:59;;;;;;;;;;;17.40;51.10;;;;;;10119943;28;945;-75
2023/02/20 20:13:55;;;;;;;;;;;17.40;51.10;;;;;;10120459;28;1961;-75
2023/02/20 20:18:52;;;;;;;;;;;17.50;51.00;;;;;;10120223;28;902;-76
2023/02/20 20:23:47;;;;;;;;;;;17.50;51.00;;;;;;10120053;28;873;-75
2023/02/20 20:28:42;;;;;;;;;;;17.40;51.00;;;;;;10119943;28;917;-75
2023/02/20 20:33:38;;;;;;;;;;;17.50;51.00;;;;;;10120132;28;1977;-75
2023/02/20 20:38:33;;;;;;;;;;;17.50;51.00;;;;;;10120255;28;806;-75
2023/02/20 20:43:28;;;;;;;;;;;17.50;51.00;;;;;;10118264;28;1248;-76
2023/02/20 20:48:24;;;;;;;;;;;17.40;51.00;;;;;;10119306;28;1127;-75
2023/02/20 20:53:19;;;;;;;;;;;17.40;51.20;;;;;;10119769;28;1918;-75
2023/02/20 20:58:14;;;;;;;;;;;17.40;51.20;;;;;;10119674;28;897;-75
2023/02/20 21:03:10;;;;;;;;;;;17.40;51.10;;;;;;10119023;28;798;-75
2023/02/20 21:08:06;;;;;;;;;;;17.40;51.10;;;;;;10118485;28;768;-80
2023/02/20 21:13:02;;;;;;;;;;;17.30;50.90;;;;;;10119393;28;1903;-76
2023/02/20 21:17:57;;;;;;;;;;;17.30;51.00;;;;;;10119252;28;896;-76
2023/02/20 21:22:52;;;;;;;;;;;17.40;51.10;;;;;;10117988;28;802;-76
2023/02/20 21:27:49;;;;;;;;;;;17.40;51.00;;;;;;10118424;28;909;-76
2023/02/20 21:32:44;;;;;;;;;;;17.30;51.00;;;;;;10118208;28;1964;-76
2023/02/20 21:37:40;;;;;;;;;;;17.30;51.10;;;;;;10118105;28;987;-76
2023/02/20 21:47:49;;;;;;;;;;;17.40;51.00;;;;;;10117973;28;589;-76
2023/02/20 21:52:45;;;;;;;;;;;17.40;51.00;;;;;;10117725;28;1919;-76
2023/02/20 21:57:40;;;;;;;;;;;17.40;51.00;;;;;;10122665;28;825;-76
